createdAt,value
2023-05-15T00:02:27.721Z,47.80
2023-05-15T00:04:56.572Z,47.80
2023-05-15T00:07:26.026Z,47.80
2023-05-15T00:09:54.849Z,47.80
2023-05-15T00:12:24.030Z,47.80
2023-05-15T00:14:53.291Z,47.80
2023-05-15T00:17:22.675Z,47.90
2023-05-15T00:19:51.899Z,47.90
2023-05-15T00:22:21.240Z,47.80
2023-05-15T00:24:50.649Z,47.80
2023-05-15T00:27:19.973Z,47.80
2023-05-15T00:29:48.917Z,47.80
2023-05-15T00:32:17.796Z,47.80
2023-05-15T00:34:47.172Z,47.80
2023-05-15T00:37:16.074Z,47.90
2023-05-15T00:39:45.090Z,47.90
2023-05-15T00:42:14.060Z,47.90
2023-05-15T00:44:42.874Z,47.80
2023-05-15T00:47:13.110Z,47.80
2023-05-15T00:49:42.477Z,47.90
2023-05-15T00:52:11.439Z,47.90
2023-05-15T00:54:40.431Z,47.90
2023-05-15T00:57:09.809Z,47.90
2023-05-15T00:59:38.770Z,47.90
2023-05-15T01:02:07.748Z,47.90
2023-05-15T01:04:36.214Z,47.80
2023-05-15T01:07:04.610Z,47.80
2023-05-15T01:09:33.347Z,47.90
2023-05-15T01:12:02.287Z,47.90
2023-05-15T01:14:31.141Z,47.80
2023-05-15T01:17:00.093Z,47.90
2023-05-15T01:19:29.202Z,47.80
2023-05-15T01:21:58.544Z,47.80
2023-05-15T01:24:27.537Z,47.90
2023-05-15T01:26:56.426Z,47.80
2023-05-15T01:29:25.232Z,47.90
2023-05-15T01:31:54.036Z,47.80
2023-05-15T01:34:23.416Z,47.80
2023-05-15T01:36:52.189Z,47.90
2023-05-15T01:39:21.021Z,47.90
2023-05-15T01:41:49.539Z,47.80
2023-05-15T01:44:21.636Z,47.90
2023-05-15T01:46:50.617Z,47.90
2023-05-15T01:49:19.511Z,47.90
2023-05-15T01:51:48.364Z,47.90
2023-05-15T01:54:17.145Z,47.90
2023-05-15T01:56:46.374Z,47.90
2023-05-15T01:59:15.205Z,47.90
2023-05-15T02:01:43.575Z,48.00
2023-05-15T02:04:11.652Z,47.90
2023-05-15T02:06:40.963Z,47.90
2023-05-15T02:09:09.101Z,48.00
2023-05-15T02:11:37.290Z,47.90
2023-05-15T02:14:06.199Z,47.90
2023-05-15T02:16:34.717Z,47.90
2023-05-15T02:19:03.661Z,47.90
2023-05-15T02:21:33.047Z,47.90
2023-05-15T02:24:01.740Z,47.90
2023-05-15T02:26:29.975Z,47.90
2023-05-15T02:28:58.751Z,48.00
2023-05-15T02:31:27.701Z,48.00
2023-05-15T02:33:56.245Z,48.10
2023-05-15T02:36:24.853Z,48.00
2023-05-15T02:38:53.260Z,48.00
2023-05-15T02:41:22.214Z,48.00
2023-05-15T02:43:50.841Z,48.00
2023-05-15T02:46:19.784Z,48.00
2023-05-15T02:48:49.343Z,48.00
2023-05-15T02:51:18.262Z,48.00
2023-05-15T02:53:47.145Z,48.10
2023-05-15T02:56:16.060Z,48.00
2023-05-15T02:58:44.417Z,48.00
2023-05-15T03:01:13.686Z,48.00
2023-05-15T03:03:42.708Z,48.10
2023-05-15T03:06:11.548Z,48.10
2023-05-15T03:08:40.839Z,48.10
2023-05-15T03:11:10.980Z,48.10
2023-05-15T03:13:39.411Z,48.10
2023-05-15T03:16:07.573Z,48.10
2023-05-15T03:18:36.421Z,48.10
2023-05-15T03:21:05.423Z,48.10
2023-05-15T03:23:36.360Z,48.10
2023-05-15T03:26:06.980Z,48.10
2023-05-15T03:28:35.969Z,48.10
2023-05-15T03:31:04.547Z,48.10
2023-05-15T03:33:33.618Z,48.10
2023-05-15T03:36:03.053Z,48.10
2023-05-15T03:38:32.391Z,48.10
2023-05-15T03:41:02.401Z,48.10
2023-05-15T03:43:33.473Z,48.10
2023-05-15T03:46:02.450Z,48.10
2023-05-15T03:48:31.421Z,48.10
2023-05-15T03:50:59.915Z,48.00
2023-05-15T03:53:31.760Z,48.00
2023-05-15T03:56:00.628Z,48.00
2023-05-15T03:58:29.596Z,48.00
2023-05-15T04:00:58.882Z,48.00
2023-05-15T04:03:28.350Z,48.00
2023-05-15T04:05:57.798Z,47.90
2023-05-15T04:08:26.673Z,48.00
2023-05-15T04:10:56.024Z,48.00
2023-05-15T04:13:25.385Z,47.90
2023-05-15T04:15:54.330Z,47.90
2023-05-15T04:18:23.479Z,47.90
2023-05-15T04:20:51.793Z,47.90
2023-05-15T04:23:21.081Z,47.90
2023-05-15T04:25:50.380Z,47.90
2023-05-15T04:28:19.580Z,47.90
2023-05-15T04:30:48.858Z,48.50
2023-05-15T04:33:18.109Z,47.90
2023-05-15T04:35:47.509Z,47.90
2023-05-15T04:38:17.045Z,47.90
2023-05-15T04:40:46.398Z,47.90
2023-05-15T04:43:15.645Z,47.80
2023-05-15T04:45:44.867Z,47.80
2023-05-15T04:48:14.111Z,47.80
2023-05-15T04:50:43.412Z,47.80
2023-05-15T04:53:12.270Z,47.70
2023-05-15T04:55:41.658Z,47.70
2023-05-15T04:58:10.949Z,47.70
2023-05-15T05:00:39.764Z,47.70
2023-05-15T05:03:08.810Z,47.60
2023-05-15T05:05:37.557Z,47.50
2023-05-15T05:08:06.136Z,47.40
2023-05-15T05:10:35.474Z,47.40
2023-05-15T05:13:04.779Z,47.30
2023-05-15T05:15:34.124Z,47.10
2023-05-15T05:18:02.938Z,47.10
2023-05-15T05:20:31.447Z,47.10
2023-05-15T05:23:00.232Z,47.00
2023-05-15T05:25:29.612Z,46.90
2023-05-15T05:27:58.492Z,46.90
2023-05-15T05:30:27.473Z,46.80
2023-05-15T05:32:55.751Z,46.60
2023-05-15T05:35:24.818Z,46.60
2023-05-15T05:37:54.255Z,46.50
2023-05-15T05:40:22.766Z,46.40
2023-05-15T05:42:51.415Z,46.40
2023-05-15T05:45:20.342Z,46.40
2023-05-15T05:47:49.228Z,46.30
2023-05-15T05:50:18.136Z,46.20
2023-05-15T05:52:47.471Z,46.20
2023-05-15T05:55:16.894Z,46.20
2023-05-15T05:57:46.148Z,46.10
2023-05-15T06:00:15.558Z,46.10
2023-05-15T06:02:44.563Z,46.10
2023-05-15T06:05:13.792Z,46.00
2023-05-15T06:07:43.241Z,46.00
2023-05-15T06:10:12.574Z,45.80
2023-05-15T06:12:41.643Z,45.80
2023-05-15T06:15:10.166Z,45.70
2023-05-15T06:17:39.072Z,45.70
2023-05-15T06:20:08.021Z,45.50
2023-05-15T06:22:36.595Z,45.50
2023-05-15T06:25:05.093Z,45.40
2023-05-15T06:27:33.765Z,45.40
2023-05-15T06:30:03.204Z,45.40
2023-05-15T06:32:34.314Z,45.20
2023-05-15T06:35:03.864Z,45.00
2023-05-15T06:37:33.395Z,44.90
2023-05-15T06:40:02.457Z,44.70
2023-05-15T06:42:31.195Z,44.60
2023-05-15T06:45:00.487Z,44.60
2023-05-15T06:47:29.983Z,44.50
2023-05-15T06:49:58.887Z,44.40
2023-05-15T06:52:28.258Z,44.40
2023-05-15T06:54:57.565Z,44.30
2023-05-15T06:57:26.456Z,44.10
2023-05-15T06:59:55.086Z,44.00
2023-05-15T07:02:24.041Z,44.00
2023-05-15T07:04:53.511Z,43.90
2023-05-15T07:07:22.895Z,43.80
2023-05-15T07:09:52.126Z,43.80
2023-05-15T07:12:20.903Z,43.70
2023-05-15T07:14:49.808Z,43.60
2023-05-15T07:17:18.643Z,43.50
2023-05-15T07:19:47.940Z,43.40
2023-05-15T07:22:17.330Z,43.20
2023-05-15T07:24:46.926Z,43.10
2023-05-15T07:27:15.871Z,43.00
2023-05-15T07:29:45.166Z,42.90
2023-05-15T07:32:14.204Z,42.80
2023-05-15T07:34:43.013Z,42.60
2023-05-15T07:37:11.702Z,42.50
2023-05-15T07:39:40.581Z,42.30
2023-05-15T07:42:09.904Z,42.30
2023-05-15T07:44:38.798Z,42.30
2023-05-15T07:47:07.378Z,42.10
2023-05-15T07:49:36.064Z,42.00
2023-05-15T07:52:04.851Z,41.80
2023-05-15T07:54:33.401Z,41.70
2023-05-15T07:57:02.360Z,41.50
2023-05-15T07:59:37.001Z,41.40
2023-05-15T08:02:06.536Z,41.40
2023-05-15T08:04:35.687Z,41.30
2023-05-15T08:07:04.647Z,41.30
2023-05-15T08:09:34.022Z,41.20
2023-05-15T08:12:03.598Z,41.10
2023-05-15T08:14:32.529Z,40.90
2023-05-15T08:17:01.549Z,40.70
2023-05-15T08:19:30.351Z,40.60
2023-05-15T08:21:59.550Z,40.20
2023-05-15T08:24:28.734Z,40.00
2023-05-15T08:26:57.553Z,39.70
2023-05-15T08:29:26.361Z,39.60
2023-05-15T08:31:55.180Z,39.40
2023-05-15T08:34:24.634Z,39.20
2023-05-15T08:36:54.066Z,39.10
2023-05-15T08:39:22.918Z,38.90
2023-05-15T08:41:51.522Z,38.50
2023-05-15T08:44:19.761Z,37.90
2023-05-15T08:46:48.378Z,36.90
2023-05-15T08:49:18.416Z,35.50
2023-05-15T08:51:48.751Z,34.60
2023-05-15T08:54:18.132Z,33.70
2023-05-15T08:56:47.514Z,32.60
2023-05-15T08:59:16.322Z,31.80
2023-05-15T09:01:44.994Z,30.70
2023-05-15T09:04:13.320Z,29.70
2023-05-15T09:06:42.227Z,29.90
2023-05-15T09:09:11.044Z,30.60
2023-05-15T09:11:40.018Z,31.50
2023-05-15T09:14:08.768Z,32.30
2023-05-15T09:16:37.588Z,32.80
2023-05-15T09:19:06.601Z,33.30
2023-05-15T09:21:35.253Z,33.70
2023-05-15T09:24:07.726Z,33.80
2023-05-15T09:26:37.282Z,34.20
2023-05-15T09:29:06.242Z,34.30
2023-05-15T09:31:35.953Z,34.50
2023-05-15T09:34:05.624Z,34.70
2023-05-15T09:36:35.250Z,34.90
2023-05-15T09:39:04.321Z,35.00
2023-05-15T09:41:33.005Z,35.30
2023-05-15T09:44:02.516Z,35.30
2023-05-15T09:46:32.107Z,35.60
2023-05-15T09:49:01.012Z,35.90
2023-05-15T09:51:30.441Z,36.10
2023-05-15T09:53:59.721Z,36.00
2023-05-15T09:56:28.660Z,34.80
2023-05-15T09:58:58.099Z,34.40
2023-05-15T10:01:27.596Z,34.50
2023-05-15T10:03:56.958Z,34.70
2023-05-15T10:06:25.714Z,34.90
2023-05-15T10:08:54.520Z,35.10
2023-05-15T10:11:23.855Z,34.80
2023-05-15T10:13:53.148Z,34.60
2023-05-15T10:16:22.595Z,34.70
2023-05-15T10:18:51.803Z,34.90
2023-05-15T10:21:21.260Z,35.10
2023-05-15T10:23:50.709Z,35.40
2023-05-15T10:26:20.125Z,35.80
2023-05-15T10:28:49.053Z,36.20
2023-05-15T10:31:17.966Z,36.50
2023-05-15T10:33:47.348Z,36.80
2023-05-15T10:36:16.467Z,37.10
2023-05-15T10:38:44.641Z,37.20
2023-05-15T10:41:17.776Z,37.40
2023-05-15T10:43:47.523Z,37.70
2023-05-15T10:46:16.974Z,37.70
2023-05-15T10:48:46.361Z,37.80
2023-05-15T10:51:15.855Z,37.90
2023-05-15T10:53:44.733Z,37.90
2023-05-15T10:56:13.504Z,37.90
2023-05-15T10:58:42.897Z,37.90
2023-05-15T11:01:11.904Z,37.90
2023-05-15T11:03:48.813Z,38.00
2023-05-15T11:06:18.776Z,38.20
2023-05-15T11:08:48.250Z,38.30
2023-05-15T11:11:17.774Z,38.40
2023-05-15T11:13:47.073Z,38.20
2023-05-15T11:16:16.497Z,38.50
2023-05-15T11:18:45.589Z,38.70
2023-05-15T11:21:14.246Z,38.70
2023-05-15T11:23:42.575Z,38.90
2023-05-15T11:26:11.208Z,39.10
2023-05-15T11:28:40.388Z,39.20
2023-05-15T11:31:08.703Z,39.40
2023-05-15T11:33:37.994Z,39.60
2023-05-15T11:36:06.958Z,40.00
2023-05-15T11:38:36.192Z,40.90
2023-05-15T11:41:05.669Z,40.30
2023-05-15T11:43:35.041Z,40.30
2023-05-15T11:46:04.090Z,40.30
2023-05-15T11:48:33.116Z,40.20
2023-05-15T11:51:02.625Z,40.20
2023-05-15T11:53:31.650Z,40.30
2023-05-15T11:56:00.310Z,40.50
2023-05-15T11:58:29.687Z,40.60
2023-05-15T12:00:58.979Z,40.60
2023-05-15T12:03:27.943Z,40.70
2023-05-15T12:06:00.114Z,40.80
2023-05-15T12:08:29.888Z,40.80
2023-05-15T12:10:58.698Z,40.80
2023-05-15T12:13:27.604Z,40.90
2023-05-15T12:15:56.389Z,41.00
2023-05-15T12:18:25.639Z,41.10
2023-05-15T12:20:54.403Z,41.20
2023-05-15T12:23:23.253Z,41.20
2023-05-15T12:25:52.142Z,41.20
2023-05-15T12:28:20.630Z,41.20
2023-05-15T12:30:48.991Z,41.20
2023-05-15T12:33:17.122Z,41.20
2023-05-15T12:35:46.015Z,41.20
2023-05-15T12:38:15.559Z,41.30
2023-05-15T12:40:44.472Z,41.30
2023-05-15T12:43:13.362Z,41.30
2023-05-15T12:45:42.700Z,41.30
2023-05-15T12:48:12.081Z,41.30
2023-05-15T12:50:40.721Z,41.10
2023-05-15T12:53:09.464Z,41.00
2023-05-15T12:55:38.820Z,40.90
2023-05-15T12:58:08.223Z,40.80
2023-05-15T13:00:37.531Z,40.70
2023-05-15T13:03:06.396Z,40.50
2023-05-15T13:05:35.306Z,40.20
2023-05-15T13:08:04.514Z,39.80
2023-05-15T13:10:33.424Z,39.70
2023-05-15T13:13:02.722Z,39.30
2023-05-15T13:15:31.812Z,39.00
2023-05-15T13:18:00.562Z,38.40
2023-05-15T13:20:29.550Z,37.80
2023-05-15T13:22:58.870Z,37.40
2023-05-15T13:25:28.063Z,37.50
2023-05-15T13:27:57.533Z,37.60
2023-05-15T13:30:26.604Z,36.60
2023-05-15T13:32:56.167Z,36.30
2023-05-15T13:35:25.311Z,36.70
2023-05-15T13:37:53.433Z,36.90
2023-05-15T13:40:22.250Z,36.10
2023-05-15T13:42:51.637Z,36.20
2023-05-15T13:45:20.907Z,36.60
2023-05-15T13:47:49.866Z,36.70
2023-05-15T13:50:18.819Z,37.30
2023-05-15T13:52:48.009Z,37.80
2023-05-15T13:55:16.844Z,38.00
2023-05-15T13:57:46.149Z,38.20
2023-05-15T14:00:15.661Z,38.30
2023-05-15T14:02:45.059Z,37.50
2023-05-15T14:05:14.321Z,37.30
2023-05-15T14:07:42.468Z,37.70
2023-05-15T14:10:11.286Z,37.80
2023-05-15T14:12:40.524Z,37.40
2023-05-15T14:15:09.840Z,37.90
2023-05-15T14:17:42.519Z,37.50
2023-05-15T14:20:11.417Z,38.00
2023-05-15T14:22:40.333Z,38.50
2023-05-15T14:25:09.729Z,39.10
2023-05-15T14:27:38.532Z,39.50
2023-05-15T14:30:07.393Z,40.00
2023-05-15T14:32:36.766Z,40.20
2023-05-15T14:35:05.850Z,40.50
2023-05-15T14:37:34.650Z,40.50
2023-05-15T14:40:03.969Z,40.10
2023-05-15T14:42:33.177Z,40.00
2023-05-15T14:45:02.227Z,40.10
2023-05-15T14:47:30.890Z,40.50
2023-05-15T14:49:59.596Z,40.70
2023-05-15T14:52:28.287Z,40.80
2023-05-15T14:55:08.698Z,41.50
2023-05-15T14:57:39.759Z,40.90
2023-05-15T15:00:09.428Z,40.90
2023-05-15T15:02:39.154Z,41.00
2023-05-15T15:05:08.265Z,41.00
2023-05-15T15:07:36.603Z,41.10
2023-05-15T15:10:05.437Z,41.20
2023-05-15T15:12:34.153Z,41.40
2023-05-15T15:15:02.693Z,41.50
2023-05-15T15:17:31.281Z,41.70
2023-05-15T15:19:59.845Z,42.00
2023-05-15T15:22:28.158Z,42.00
2023-05-15T15:24:59.849Z,42.00
2023-05-15T15:27:29.830Z,42.00
2023-05-15T15:29:58.604Z,42.00
2023-05-15T15:32:27.859Z,42.20
2023-05-15T15:34:57.241Z,42.10
2023-05-15T15:37:26.640Z,42.30
2023-05-15T15:39:56.057Z,42.50
2023-05-15T15:42:25.374Z,42.50
2023-05-15T15:44:54.733Z,42.60
2023-05-15T15:47:24.000Z,42.70
2023-05-15T15:49:53.261Z,42.80
2023-05-15T15:52:22.649Z,43.00
2023-05-15T15:54:52.024Z,43.10
2023-05-15T15:57:20.832Z,43.20
2023-05-15T15:59:49.720Z,43.30
2023-05-15T16:02:19.147Z,43.20
2023-05-15T16:04:47.740Z,43.30
2023-05-15T16:07:16.042Z,43.30
2023-05-15T16:09:45.721Z,43.40
2023-05-15T16:12:16.283Z,43.40
2023-05-15T16:14:45.642Z,43.60
2023-05-15T16:17:14.905Z,43.80
2023-05-15T16:19:43.721Z,43.90
2023-05-15T16:22:13.034Z,44.00
2023-05-15T16:24:42.352Z,44.10
2023-05-15T16:27:11.624Z,44.10
2023-05-15T16:29:40.983Z,44.20
2023-05-15T16:32:10.002Z,44.30
2023-05-15T16:34:38.872Z,44.40
2023-05-15T16:37:08.169Z,44.50
2023-05-15T16:39:37.029Z,44.60
2023-05-15T16:42:07.906Z,44.80
2023-05-15T16:44:38.740Z,44.80
2023-05-15T16:47:08.112Z,44.80
2023-05-15T16:49:37.351Z,44.90
2023-05-15T16:52:06.591Z,44.90
2023-05-15T16:54:35.479Z,44.90
2023-05-15T16:57:05.018Z,45.00
2023-05-15T16:59:34.307Z,45.00
2023-05-15T17:02:03.736Z,45.00
2023-05-15T17:04:33.191Z,45.00
2023-05-15T17:07:02.520Z,45.00
2023-05-15T17:09:31.942Z,45.00
2023-05-15T17:12:01.386Z,44.90
2023-05-15T17:14:29.972Z,44.90
2023-05-15T17:16:58.768Z,45.00
2023-05-15T17:19:28.133Z,45.10
2023-05-15T17:21:56.924Z,45.00
2023-05-15T17:24:27.228Z,45.00
2023-05-15T17:27:02.165Z,44.90
2023-05-15T17:29:30.954Z,44.80
2023-05-15T17:32:00.245Z,44.80
2023-05-15T17:34:29.613Z,44.80
2023-05-15T17:36:58.146Z,44.80
2023-05-15T17:39:26.814Z,44.90
2023-05-15T17:41:56.217Z,45.00
2023-05-15T17:44:25.665Z,45.10
2023-05-15T17:46:54.984Z,45.10
2023-05-15T17:49:24.368Z,45.20
2023-05-15T17:51:53.840Z,45.10
2023-05-15T17:54:22.788Z,45.10
2023-05-15T17:56:51.696Z,45.10
2023-05-15T17:59:20.852Z,45.10
2023-05-15T18:01:49.161Z,45.10
2023-05-15T18:04:18.508Z,45.40
2023-05-15T18:06:47.856Z,45.10
2023-05-15T18:09:17.270Z,45.10
2023-05-15T18:11:45.906Z,45.20
2023-05-15T18:14:14.330Z,45.20
2023-05-15T18:16:42.716Z,45.20
2023-05-15T18:19:11.515Z,45.20
2023-05-15T18:21:40.808Z,45.40
2023-05-15T18:24:09.721Z,45.40
2023-05-15T18:26:39.025Z,45.40
2023-05-15T18:29:12.661Z,45.50
2023-05-15T18:31:42.062Z,45.50
2023-05-15T18:34:11.118Z,45.50
2023-05-15T18:36:39.978Z,45.60
2023-05-15T18:39:08.672Z,45.70
2023-05-15T18:41:37.300Z,45.70
2023-05-15T18:44:06.087Z,45.80
2023-05-15T18:46:35.406Z,45.80
2023-05-15T18:49:04.228Z,45.80
2023-05-15T18:51:33.076Z,46.50
2023-05-15T18:54:02.508Z,45.80
2023-05-15T18:56:31.833Z,45.90
2023-05-15T18:59:01.242Z,45.90
2023-05-15T19:01:30.677Z,46.00
2023-05-15T19:04:00.129Z,46.00
2023-05-15T19:06:29.514Z,46.00
2023-05-15T19:08:58.765Z,46.10
2023-05-15T19:11:28.082Z,46.10
2023-05-15T19:13:57.460Z,46.10
2023-05-15T19:16:26.373Z,46.10
2023-05-15T19:18:55.782Z,46.10
2023-05-15T19:21:24.564Z,46.10
2023-05-15T19:23:53.723Z,46.10
2023-05-15T19:26:22.561Z,46.20
2023-05-15T19:28:55.884Z,46.20
2023-05-15T19:31:31.484Z,46.20
2023-05-15T19:34:00.723Z,46.30
2023-05-15T19:36:29.402Z,46.30
2023-05-15T19:38:58.655Z,46.30
2023-05-15T19:41:27.542Z,46.30
2023-05-15T19:43:57.025Z,46.40
2023-05-15T19:46:26.236Z,46.40
2023-05-15T19:48:55.602Z,46.40
2023-05-15T19:51:24.982Z,46.40
2023-05-15T19:53:54.314Z,46.40
2023-05-15T19:56:23.721Z,46.50
2023-05-15T19:58:52.957Z,46.40
2023-05-15T20:01:22.402Z,47.00
2023-05-15T20:03:51.806Z,46.40
2023-05-15T20:06:20.664Z,46.60
2023-05-15T20:08:49.513Z,46.40
2023-05-15T20:11:18.928Z,46.40
2023-05-15T20:13:47.920Z,46.50
2023-05-15T20:16:16.066Z,46.50
2023-05-15T20:18:45.267Z,46.50
2023-05-15T20:21:14.612Z,46.40
2023-05-15T20:23:43.915Z,46.40
2023-05-15T20:26:13.264Z,46.40
2023-05-15T20:28:44.432Z,46.30
2023-05-15T20:31:14.590Z,46.40
2023-05-15T20:33:43.952Z,46.40
2023-05-15T20:36:13.182Z,46.30
2023-05-15T20:38:42.512Z,46.20
2023-05-15T20:41:11.976Z,46.20
2023-05-15T20:43:41.286Z,46.10
2023-05-15T20:46:10.707Z,46.20
2023-05-15T20:48:39.733Z,46.10
2023-05-15T20:51:08.724Z,46.00
2023-05-15T20:53:37.016Z,46.00
2023-05-15T20:56:05.923Z,46.00
2023-05-15T20:58:35.270Z,46.00
2023-05-15T21:01:04.582Z,45.90
2023-05-15T21:03:33.975Z,45.80
2023-05-15T21:06:03.226Z,45.80
2023-05-15T21:08:32.570Z,45.70
2023-05-15T21:11:01.070Z,45.70
2023-05-15T21:13:29.727Z,45.70
2023-05-15T21:15:58.493Z,45.70
2023-05-15T21:18:27.756Z,45.60
2023-05-15T21:20:56.583Z,45.60
2023-05-15T21:23:25.877Z,45.50
2023-05-15T21:25:54.650Z,45.40
2023-05-15T21:28:23.388Z,45.50
2023-05-15T21:30:52.155Z,45.20
2023-05-15T21:33:21.074Z,45.40
2023-05-15T21:35:50.372Z,45.40
2023-05-15T21:38:18.839Z,45.30
2023-05-15T21:40:47.430Z,45.20
2023-05-15T21:43:16.575Z,45.00
2023-05-15T21:45:45.757Z,45.10
2023-05-15T21:48:15.068Z,44.90
2023-05-15T21:50:44.426Z,45.00
2023-05-15T21:53:13.341Z,44.90
2023-05-15T21:55:41.990Z,45.00
2023-05-15T21:58:11.325Z,45.10
2023-05-15T22:00:40.662Z,44.90
2023-05-15T22:03:09.595Z,45.00
2023-05-15T22:05:39.035Z,44.90
2023-05-15T22:08:08.416Z,44.90
2023-05-15T22:10:37.777Z,44.80
2023-05-15T22:13:06.779Z,44.80
2023-05-15T22:15:35.476Z,44.80
2023-05-15T22:18:04.873Z,44.70
2023-05-15T22:20:34.378Z,44.80
2023-05-15T22:23:03.628Z,44.60
2023-05-15T22:25:32.455Z,44.60
2023-05-15T22:28:01.682Z,44.60
2023-05-15T22:30:30.272Z,44.60
2023-05-15T22:32:58.995Z,44.60
2023-05-15T22:35:28.217Z,44.50
2023-05-15T22:37:57.392Z,45.00
2023-05-15T22:40:26.861Z,44.40
2023-05-15T22:42:56.011Z,44.30
2023-05-15T22:45:25.399Z,44.20
2023-05-15T22:47:54.751Z,44.20
2023-05-15T22:50:24.463Z,44.20
2023-05-15T22:52:53.473Z,44.30
2023-05-15T22:55:22.237Z,44.20
2023-05-15T22:57:51.421Z,44.20
2023-05-15T23:00:19.906Z,44.10
2023-05-15T23:02:48.563Z,44.10
2023-05-15T23:05:17.482Z,44.00
2023-05-15T23:07:46.858Z,44.10
2023-05-15T23:10:16.092Z,43.90
2023-05-15T23:12:45.317Z,44.00
2023-05-15T23:15:14.395Z,43.90
2023-05-15T23:17:42.652Z,44.00
2023-05-15T23:20:11.989Z,43.90
2023-05-15T23:22:41.256Z,43.90
2023-05-15T23:25:10.498Z,43.90
2023-05-15T23:27:39.640Z,43.90
2023-05-15T23:30:08.903Z,43.80
2023-05-15T23:32:38.124Z,43.80
2023-05-15T23:35:07.484Z,43.80
2023-05-15T23:37:36.700Z,43.80
2023-05-15T23:40:05.883Z,43.80
2023-05-15T23:42:35.077Z,43.80
2023-05-15T23:45:03.806Z,43.70
2023-05-15T23:47:33.125Z,43.70
2023-05-15T23:50:02.469Z,43.70
2023-05-15T23:52:31.608Z,43.70
2023-05-15T23:55:00.882Z,43.70
2023-05-15T23:57:30.175Z,43.80
2023-05-15T23:59:59.089Z,43.90
